createdAt,value
2022-10-18T00:06:15.869Z,101991.31
2022-10-18T00:16:19.940Z,101991.41
2022-10-18T00:26:26.605Z,101985.03
2022-10-18T00:36:31.131Z,101969.47
2022-10-18T00:46:36.637Z,101974.00
2022-10-18T00:56:39.931Z,101968.72
2022-10-18T01:06:53.843Z,101962.53
2022-10-18T01:17:00.355Z,101956.00
2022-10-18T01:27:26.918Z,101943.09
2022-10-18T01:37:33.166Z,101932.47
2022-10-18T01:47:37.496Z,101925.16
2022-10-18T01:57:43.817Z,101914.44
2022-10-18T02:08:00.277Z,101912.31
2022-10-18T02:18:19.191Z,101905.81
2022-10-18T02:28:22.422Z,101905.59
2022-10-18T02:38:27.575Z,101905.41
2022-10-18T02:48:30.759Z,101902.97
2022-10-18T02:58:35.157Z,101908.13
2022-10-18T03:08:38.257Z,101904.75
2022-10-18T03:18:42.746Z,101907.75
2022-10-18T03:28:45.936Z,101911.66
2022-10-18T03:38:50.480Z,101907.66
2022-10-18T03:48:53.580Z,101915.97
2022-10-18T03:58:58.208Z,101925.19
2022-10-18T04:09:03.174Z,101911.37
2022-10-18T04:19:09.842Z,101911.19
2022-10-18T04:29:12.903Z,101898.13
2022-10-18T04:39:17.892Z,101895.44
2022-10-18T04:49:21.213Z,101896.78
2022-10-18T04:59:25.621Z,101888.34
2022-10-18T05:09:28.713Z,101895.06
2022-10-18T05:19:33.179Z,101884.72
2022-10-18T05:29:36.288Z,101890.06
2022-10-18T05:39:40.848Z,101884.37
2022-10-18T05:49:44.123Z,101883.47
2022-10-18T05:59:48.656Z,101886.72
2022-10-18T06:09:51.761Z,101896.88
2022-10-18T06:19:56.139Z,101901.25
2022-10-18T06:29:59.349Z,101907.34
2022-10-18T06:40:04.173Z,101907.31
2022-10-18T06:50:08.606Z,101905.66
2022-10-18T07:00:15.011Z,101918.63
2022-10-18T07:10:18.363Z,101893.34
2022-10-18T07:20:22.897Z,101886.50
2022-10-18T07:30:25.958Z,101883.12
2022-10-18T07:40:30.374Z,101884.13
2022-10-18T07:50:33.441Z,101881.53
2022-10-18T08:00:40.981Z,101868.53
2022-10-18T08:10:45.406Z,101866.00
2022-10-18T08:20:49.815Z,101849.16
2022-10-18T08:30:52.915Z,101841.84
2022-10-18T08:40:57.375Z,101835.47
2022-10-18T08:51:01.098Z,101811.06
2022-10-18T09:01:13.061Z,101796.44
2022-10-18T09:11:26.125Z,101788.06
2022-10-18T09:21:42.994Z,101778.22
2022-10-18T09:31:49.448Z,101762.34
2022-10-18T09:41:55.898Z,101760.31
2022-10-18T09:52:01.055Z,101746.50
2022-10-18T10:02:06.357Z,101724.97
2022-10-18T10:12:26.648Z,101715.16
2022-10-18T10:22:36.884Z,101704.09
2022-10-18T10:32:48.272Z,101693.41
2022-10-18T10:43:00.008Z,101676.22
2022-10-18T10:53:39.313Z,101659.31
2022-10-18T11:03:46.985Z,101637.09
2022-10-18T11:14:07.235Z,101616.53
2022-10-18T11:24:17.995Z,101605.69
2022-10-18T11:34:38.235Z,101592.56
2022-10-18T11:44:48.015Z,101584.66
2022-10-18T11:55:02.316Z,101558.87
2022-10-18T12:05:24.229Z,101553.00
2022-10-18T12:15:29.227Z,101534.13
2022-10-18T12:25:36.524Z,101516.19
2022-10-18T12:35:50.461Z,101494.37
2022-10-18T12:45:57.326Z,101471.97
2022-10-18T12:56:36.779Z,101461.69
2022-10-18T13:07:19.298Z,101461.66
2022-10-18T13:17:31.322Z,101444.03
2022-10-18T13:27:45.258Z,101436.91
2022-10-18T13:37:58.199Z,101435.41
2022-10-18T13:48:35.045Z,101434.16
2022-10-18T13:58:49.244Z,101427.41
2022-10-18T14:09:25.577Z,101421.97
2022-10-18T14:19:40.227Z,101407.63
2022-10-18T14:29:43.369Z,101387.00
2022-10-18T14:39:48.011Z,101376.97
2022-10-18T14:49:51.493Z,101363.22
2022-10-18T14:59:59.500Z,101355.56
2022-10-18T15:10:05.091Z,101342.03
2022-10-18T15:20:24.987Z,101336.94
2022-10-18T15:30:30.138Z,101329.81
2022-10-18T15:40:37.688Z,101331.59
2022-10-18T15:50:42.964Z,101327.03
2022-10-18T16:00:48.087Z,101329.00
2022-10-18T16:10:51.486Z,101329.56
2022-10-18T16:20:55.928Z,101321.59
2022-10-18T16:31:01.693Z,101327.75
2022-10-18T16:41:08.331Z,101339.75
2022-10-18T16:51:12.489Z,101336.81
2022-10-18T17:01:19.043Z,101349.53
2022-10-18T17:11:23.484Z,101346.31
2022-10-18T17:21:29.057Z,101365.75
2022-10-18T17:31:32.323Z,101359.72
2022-10-18T17:41:37.085Z,101338.84
2022-10-18T17:51:41.154Z,101341.53
2022-10-18T18:01:48.647Z,101352.13
2022-10-18T18:11:52.318Z,101353.00
2022-10-18T18:21:58.643Z,101344.28
2022-10-18T18:32:02.962Z,101334.59
2022-10-18T18:42:07.706Z,101335.44
2022-10-18T18:52:10.764Z,101325.78
2022-10-18T19:02:15.256Z,101324.84
2022-10-18T19:12:20.644Z,101321.25
2022-10-18T19:22:26.247Z,101301.16
2022-10-18T19:32:29.542Z,101291.44
2022-10-18T19:42:34.303Z,101300.12
2022-10-18T19:52:37.732Z,101306.91
2022-10-18T20:02:42.189Z,101305.28
2022-10-18T20:12:45.338Z,101285.94
2022-10-18T20:22:49.886Z,101282.25
2022-10-18T20:32:53.064Z,101281.28
2022-10-18T20:43:01.460Z,101281.19
2022-10-18T20:53:06.924Z,101290.87
2022-10-18T21:13:15.573Z,101260.19
2022-10-18T21:23:20.351Z,101257.47
2022-10-18T21:33:23.493Z,101254.72
2022-10-18T21:43:28.085Z,101252.09
2022-10-18T21:53:31.612Z,101219.00
2022-10-18T22:03:36.263Z,101218.25
2022-10-18T22:13:39.345Z,101211.28
2022-10-18T22:23:44.891Z,101196.59
2022-10-18T22:33:48.612Z,101198.56
2022-10-18T22:43:54.883Z,101187.28
2022-10-18T22:53:59.461Z,101190.81
2022-10-18T23:04:04.133Z,101201.22
2022-10-18T23:14:07.938Z,101196.03
2022-10-18T23:24:12.342Z,101173.41
2022-10-18T23:34:15.487Z,101182.06
2022-10-18T23:44:19.926Z,101177.56
2022-10-18T23:54:23.195Z,101168.87
